sensor_id;sensor_type;location;lat;lon;timestamp;pressure;altitude;pressure_sealevel;temperature;humidity
66703;BME280;60933;46.398;-63.798;2023-06-10T00:02:17;100792.75;;;7.67;90.24
66703;BME280;60933;46.398;-63.798;2023-06-10T00:04:43;100792.75;;;7.67;90.20
66703;BME280;60933;46.398;-63.798;2023-06-10T00:07:09;100797.06;;;7.66;90.72
66703;BME280;60933;46.398;-63.798;2023-06-10T00:09:36;100799.63;;;7.65;90.75
66703;BME280;60933;46.398;-63.798;2023-06-10T00:12:05;100797.09;;;7.63;90.75
66703;BME280;60933;46.398;-63.798;2023-06-10T00:14:39;100808.22;;;7.65;91.50
66703;BME280;60933;46.398;-63.798;2023-06-10T00:17:08;100809.88;;;7.68;91.59
66703;BME280;60933;46.398;-63.798;2023-06-10T00:19:35;100792.03;;;7.55;91.22
66703;BME280;60933;46.398;-63.798;2023-06-10T00:22:02;100800.56;;;7.57;91.34
66703;BME280;60933;46.398;-63.798;2023-06-10T00:24:28;100798.03;;;7.56;91.51
66703;BME280;60933;46.398;-63.798;2023-06-10T00:26:55;100798.00;;;7.57;91.50
66703;BME280;60933;46.398;-63.798;2023-06-10T00:29:21;100808.34;;;7.54;91.62
66703;BME280;60933;46.398;-63.798;2023-06-10T00:31:47;100815.16;;;7.57;91.76
66703;BME280;60933;46.398;-63.798;2023-06-10T00:34:13;100823.75;;;7.53;91.38
66703;BME280;60933;46.398;-63.798;2023-06-10T00:36:40;100817.75;;;7.54;91.53
66703;BME280;60933;46.398;-63.798;2023-06-10T00:39:06;100812.66;;;7.51;91.54
66703;BME280;60933;46.398;-63.798;2023-06-10T00:41:32;100809.22;;;7.47;91.60
66703;BME280;60933;46.398;-63.798;2023-06-10T00:43:59;100821.22;;;7.48;91.77
66703;BME280;60933;46.398;-63.798;2023-06-10T00:46:27;100812.75;;;7.41;91.51
66703;BME280;60933;46.398;-63.798;2023-06-10T00:48:54;100811.91;;;7.36;91.59
66703;BME280;60933;46.398;-63.798;2023-06-10T00:51:21;100819.59;;;7.42;91.35
66703;BME280;60933;46.398;-63.798;2023-06-10T00:53:48;100811.03;;;7.40;91.74
66703;BME280;60933;46.398;-63.798;2023-06-10T00:56:15;100816.13;;;7.43;91.41
66703;BME280;60933;46.398;-63.798;2023-06-10T00:58:41;100826.41;;;7.45;90.93
66703;BME280;60933;46.398;-63.798;2023-06-10T01:01:08;100819.53;;;7.45;91.18
66703;BME280;60933;46.398;-63.798;2023-06-10T01:03:37;100820.41;;;7.46;91.09
66703;BME280;60933;46.398;-63.798;2023-06-10T01:11:13;100804.16;;;7.41;91.20
66703;BME280;60933;46.398;-63.798;2023-06-10T01:13:43;100812.69;;;7.44;91.38
66703;BME280;60933;46.398;-63.798;2023-06-10T01:16:10;100806.72;;;7.44;91.36
66703;BME280;60933;46.398;-63.798;2023-06-10T01:18:43;100808.47;;;7.40;91.80
66703;BME280;60933;46.398;-63.798;2023-06-10T01:21:19;100806.69;;;7.45;91.50
66703;BME280;60933;46.398;-63.798;2023-06-10T01:23:53;100809.25;;;7.45;91.89
66703;BME280;60933;46.398;-63.798;2023-06-10T01:26:30;100805.03;;;7.41;91.78
66703;BME280;60933;46.398;-63.798;2023-06-10T01:29:32;100797.41;;;7.35;91.46
66703;BME280;60933;46.398;-63.798;2023-06-10T01:34:26;100805.06;;;7.38;92.15
66703;BME280;60933;46.398;-63.798;2023-06-10T01:37:00;100793.09;;;7.39;92.39
66703;BME280;60933;46.398;-63.798;2023-06-10T01:39:28;100797.34;;;7.38;92.67
66703;BME280;60933;46.398;-63.798;2023-06-10T01:41:55;100792.22;;;7.38;92.96
66703;BME280;60933;46.398;-63.798;2023-06-10T01:44:23;100775.16;;;7.34;92.59
66703;BME280;60933;46.398;-63.798;2023-06-10T01:46:49;100768.31;;;7.33;92.74
66703;BME280;60933;46.398;-63.798;2023-06-10T01:49:16;100764.88;;;7.34;92.88
66703;BME280;60933;46.398;-63.798;2023-06-10T01:51:42;100768.31;;;7.33;92.84
66703;BME280;60933;46.398;-63.798;2023-06-10T01:54:08;100758.13;;;7.27;93.11
66703;BME280;60933;46.398;-63.798;2023-06-10T01:56:34;100767.53;;;7.26;92.95
66703;BME280;60933;46.398;-63.798;2023-06-10T01:59:00;100759.78;;;7.28;92.89
66703;BME280;60933;46.398;-63.798;2023-06-10T02:01:26;100768.41;;;7.24;92.79
66703;BME280;60933;46.398;-63.798;2023-06-10T02:03:52;100765.00;;;7.22;92.94
66703;BME280;60933;46.398;-63.798;2023-06-10T02:06:19;100757.28;;;7.22;92.88
66703;BME280;60933;46.398;-63.798;2023-06-10T02:08:45;100764.19;;;7.20;92.66
66703;BME280;60933;46.398;-63.798;2023-06-10T02:11:11;100760.75;;;7.19;92.92
66703;BME280;60933;46.398;-63.798;2023-06-10T02:13:38;100765.09;;;7.14;92.68
66703;BME280;60933;46.398;-63.798;2023-06-10T02:16:04;100768.53;;;7.13;92.70
66703;BME280;60933;46.398;-63.798;2023-06-10T02:18:31;100761.66;;;7.13;93.28
66703;BME280;60933;46.398;-63.798;2023-06-10T02:20:57;100761.66;;;7.15;93.38
66703;BME280;60933;46.398;-63.798;2023-06-10T02:23:23;100764.25;;;7.12;93.34
66703;BME280;60933;46.398;-63.798;2023-06-10T02:25:50;100762.59;;;7.08;93.34
66703;BME280;60933;46.398;-63.798;2023-06-10T02:28:16;100758.38;;;6.99;92.99
66703;BME280;60933;46.398;-63.798;2023-06-10T02:30:42;100759.28;;;6.96;93.16
66703;BME280;60933;46.398;-63.798;2023-06-10T02:33:09;100767.00;;;6.95;93.34
66703;BME280;60933;46.398;-63.798;2023-06-10T02:35:39;100756.78;;;6.89;93.31
66703;BME280;60933;46.398;-63.798;2023-06-10T02:38:05;100752.56;;;6.80;93.19
66703;BME280;60933;46.398;-63.798;2023-06-10T02:40:31;100756.88;;;6.79;93.41
66703;BME280;60933;46.398;-63.798;2023-06-10T02:42:58;100752.63;;;6.74;93.36
66703;BME280;60933;46.398;-63.798;2023-06-10T02:45:24;100754.41;;;6.69;93.66
66703;BME280;60933;46.398;-63.798;2023-06-10T02:47:50;100745.06;;;6.61;93.53
66703;BME280;60933;46.398;-63.798;2023-06-10T02:50:17;100751.03;;;6.60;93.47
66703;BME280;60933;46.398;-63.798;2023-06-10T02:52:43;100734.00;;;6.52;94.24
66703;BME280;60933;46.398;-63.798;2023-06-10T02:55:09;100752.75;;;6.60;94.31
66703;BME280;60933;46.398;-63.798;2023-06-10T02:57:35;100751.88;;;6.64;94.23
66703;BME280;60933;46.398;-63.798;2023-06-10T03:00:02;100752.75;;;6.60;94.24
66703;BME280;60933;46.398;-63.798;2023-06-10T03:02:34;100750.19;;;6.58;94.49
66703;BME280;60933;46.398;-63.798;2023-06-10T03:05:05;100755.34;;;6.57;93.95
66703;BME280;60933;46.398;-63.798;2023-06-10T03:07:36;100747.66;;;6.57;94.57
66703;BME280;60933;46.398;-63.798;2023-06-10T03:10:03;100747.69;;;6.49;94.16
66703;BME280;60933;46.398;-63.798;2023-06-10T03:12:29;100745.22;;;6.41;94.31
66703;BME280;60933;46.398;-63.798;2023-06-10T03:14:55;100734.97;;;6.38;94.00
66703;BME280;60933;46.398;-63.798;2023-06-10T03:17:21;100729.03;;;6.31;94.30
66703;BME280;60933;46.398;-63.798;2023-06-10T03:19:47;100730.78;;;6.25;94.36
66703;BME280;60933;46.398;-63.798;2023-06-10T03:22:14;100736.75;;;6.25;94.38
66703;BME280;60933;46.398;-63.798;2023-06-10T03:24:41;100726.50;;;6.27;94.83
66703;BME280;60933;46.398;-63.798;2023-06-10T03:27:10;100723.94;;;6.27;95.06
66703;BME280;60933;46.398;-63.798;2023-06-10T03:29:39;100732.47;;;6.29;94.93
66703;BME280;60933;46.398;-63.798;2023-06-10T03:32:06;100731.59;;;6.30;95.38
66703;BME280;60933;46.398;-63.798;2023-06-10T03:34:32;100732.47;;;6.30;95.40
66703;BME280;60933;46.398;-63.798;2023-06-10T03:36:59;100733.31;;;6.31;95.43
66703;BME280;60933;46.398;-63.798;2023-06-10T03:39:26;100734.19;;;6.31;95.79
66703;BME280;60933;46.398;-63.798;2023-06-10T03:41:55;100738.47;;;6.25;95.33
66703;BME280;60933;46.398;-63.798;2023-06-10T03:44:26;100730.00;;;6.20;95.35
66703;BME280;60933;46.398;-63.798;2023-06-10T03:46:54;100720.59;;;6.15;95.27
66703;BME280;60933;46.398;-63.798;2023-06-10T03:49:21;100735.06;;;6.23;95.51
66703;BME280;60933;46.398;-63.798;2023-06-10T03:51:52;100726.59;;;6.16;95.78
66703;BME280;60933;46.398;-63.798;2023-06-10T03:54:19;100721.47;;;6.14;95.80
66703;BME280;60933;46.398;-63.798;2023-06-10T03:56:45;100729.09;;;6.22;95.74
66703;BME280;60933;46.398;-63.798;2023-06-10T03:59:13;100726.56;;;6.17;95.58
66703;BME280;60933;46.398;-63.798;2023-06-10T04:01:40;100719.72;;;6.20;95.50
66703;BME280;60933;46.398;-63.798;2023-06-10T04:04:07;100718.03;;;6.18;95.47
66703;BME280;60933;46.398;-63.798;2023-06-10T04:06:33;100715.47;;;6.18;95.62
66703;BME280;60933;46.398;-63.798;2023-06-10T04:08:59;100709.50;;;6.16;95.66
66703;BME280;60933;46.398;-63.798;2023-06-10T04:11:25;100716.38;;;6.11;95.23
66703;BME280;60933;46.398;-63.798;2023-06-10T04:13:51;100711.28;;;6.05;94.98
66703;BME280;60933;46.398;-63.798;2023-06-10T04:16:18;100707.88;;;6.03;95.43
66703;BME280;60933;46.398;-63.798;2023-06-10T04:18:44;100701.91;;;6.04;95.26
66703;BME280;60933;46.398;-63.798;2023-06-10T04:21:10;100701.06;;;5.99;95.23
66703;BME280;60933;46.398;-63.798;2023-06-10T04:23:36;100711.28;;;6.04;94.96
66703;BME280;60933;46.398;-63.798;2023-06-10T04:26:03;100707.84;;;6.05;95.02
66703;BME280;60933;46.398;-63.798;2023-06-10T04:28:29;100706.16;;;6.04;95.26
66703;BME280;60933;46.398;-63.798;2023-06-10T04:30:55;100694.22;;;6.04;94.87
66703;BME280;60933;46.398;-63.798;2023-06-10T04:33:21;100701.03;;;6.02;94.93
66703;BME280;60933;46.398;-63.798;2023-06-10T04:35:47;100702.78;;;5.97;95.16
66703;BME280;60933;46.398;-63.798;2023-06-10T04:38:14;100698.47;;;5.97;94.88
66703;BME280;60933;46.398;-63.798;2023-06-10T04:40:40;100696.81;;;5.99;95.09
66703;BME280;60933;46.398;-63.798;2023-06-10T04:43:06;100696.75;;;5.98;95.29
66703;BME280;60933;46.398;-63.798;2023-06-10T04:45:32;100689.09;;;5.95;95.23
66703;BME280;60933;46.398;-63.798;2023-06-10T04:47:58;100687.44;;;5.88;94.75
66703;BME280;60933;46.398;-63.798;2023-06-10T04:50:24;100681.50;;;5.79;94.52
66703;BME280;60933;46.398;-63.798;2023-06-10T04:52:51;100666.19;;;5.71;94.90
66703;BME280;60933;46.398;-63.798;2023-06-10T04:55:17;100678.09;;;5.77;94.71
66703;BME280;60933;46.398;-63.798;2023-06-10T04:57:43;100674.72;;;5.77;94.67
66703;BME280;60933;46.398;-63.798;2023-06-10T05:00:10;100663.59;;;5.76;94.86
66703;BME280;60933;46.398;-63.798;2023-06-10T05:02:36;100672.16;;;5.77;94.95
66703;BME280;60933;46.398;-63.798;2023-06-10T05:05:02;100669.56;;;5.75;95.04
66703;BME280;60933;46.398;-63.798;2023-06-10T05:07:28;100662.78;;;5.69;95.14
66703;BME280;60933;46.398;-63.798;2023-06-10T05:09:54;100662.78;;;5.68;95.02
66703;BME280;60933;46.398;-63.798;2023-06-10T05:12:21;100660.25;;;5.69;95.27
66703;BME280;60933;46.398;-63.798;2023-06-10T05:14:47;100658.50;;;5.70;95.74
66703;BME280;60933;46.398;-63.798;2023-06-10T05:17:13;100644.91;;;5.65;96.17
66703;BME280;60933;46.398;-63.798;2023-06-10T05:19:40;100650.81;;;5.71;96.31
66703;BME280;60933;46.398;-63.798;2023-06-10T05:22:07;100649.94;;;5.73;96.22
66703;BME280;60933;46.398;-63.798;2023-06-10T05:24:33;100654.22;;;5.74;96.64
66703;BME280;60933;46.398;-63.798;2023-06-10T05:26:59;100655.06;;;5.73;96.61
66703;BME280;60933;46.398;-63.798;2023-06-10T05:29:25;100659.38;;;5.70;96.32
66703;BME280;60933;46.398;-63.798;2023-06-10T05:31:52;100655.94;;;5.70;96.60
66703;BME280;60933;46.398;-63.798;2023-06-10T05:34:18;100643.16;;;5.68;96.70
66703;BME280;60933;46.398;-63.798;2023-06-10T05:36:44;100654.25;;;5.70;96.91
66703;BME280;60933;46.398;-63.798;2023-06-10T05:39:10;100649.94;;;5.73;96.86
66703;BME280;60933;46.398;-63.798;2023-06-10T05:41:36;100632.06;;;5.66;96.89
66703;BME280;60933;46.398;-63.798;2023-06-10T05:44:02;100644.84;;;5.74;97.23
66703;BME280;60933;46.398;-63.798;2023-06-10T05:46:29;100640.56;;;5.71;97.59
66703;BME280;60933;46.398;-63.798;2023-06-10T05:48:55;100638.84;;;5.77;97.55
66703;BME280;60933;46.398;-63.798;2023-06-10T05:51:21;100645.66;;;5.79;97.79
66703;BME280;60933;46.398;-63.798;2023-06-10T05:53:47;100637.06;;;5.83;97.91
66703;BME280;60933;46.398;-63.798;2023-06-10T05:56:14;100640.50;;;5.84;97.70
66703;BME280;60933;46.398;-63.798;2023-06-10T05:58:40;100635.34;;;5.89;98.27
66703;BME280;60933;46.398;-63.798;2023-06-10T06:01:06;100621.69;;;5.83;98.05
66703;BME280;60933;46.398;-63.798;2023-06-10T06:03:32;100632.75;;;5.92;98.40
66703;BME280;60933;46.398;-63.798;2023-06-10T06:05:58;100630.19;;;5.93;98.11
66703;BME280;60933;46.398;-63.798;2023-06-10T06:08:25;100625.91;;;5.94;98.22
66703;BME280;60933;46.398;-63.798;2023-06-10T06:10:51;100623.31;;;5.95;98.64
66703;BME280;60933;46.398;-63.798;2023-06-10T06:13:17;100609.72;;;5.90;98.56
66703;BME280;60933;46.398;-63.798;2023-06-10T06:15:43;100610.53;;;5.97;98.63
66703;BME280;60933;46.398;-63.798;2023-06-10T06:18:10;100621.59;;;6.02;98.92
66703;BME280;60933;46.398;-63.798;2023-06-10T06:20:36;100612.19;;;5.98;98.43
66703;BME280;60933;46.398;-63.798;2023-06-10T06:23:02;100614.75;;;6.02;98.66
66703;BME280;60933;46.398;-63.798;2023-06-10T06:25:28;100610.47;;;6.05;98.73
66703;BME280;60933;46.398;-63.798;2023-06-10T06:27:57;100600.22;;;6.06;98.90
66703;BME280;60933;46.398;-63.798;2023-06-10T06:30:24;100605.31;;;6.09;99.10
66703;BME280;60933;46.398;-63.798;2023-06-10T06:32:50;100600.19;;;6.09;99.09
66703;BME280;60933;46.398;-63.798;2023-06-10T06:35:17;100597.66;;;6.08;99.13
66703;BME280;60933;46.398;-63.798;2023-06-10T06:37:43;100595.91;;;6.10;98.79
66703;BME280;60933;46.398;-63.798;2023-06-10T06:40:09;100592.50;;;6.09;99.11
66703;BME280;60933;46.398;-63.798;2023-06-10T06:42:36;100601.03;;;6.11;99.03
66703;BME280;60933;46.398;-63.798;2023-06-10T06:45:02;100592.47;;;6.11;99.05
66703;BME280;60933;46.398;-63.798;2023-06-10T06:47:28;100593.31;;;6.16;99.30
66703;BME280;60933;46.398;-63.798;2023-06-10T06:49:54;100585.63;;;6.16;99.20
66703;BME280;60933;46.398;-63.798;2023-06-10T06:52:20;100592.47;;;6.14;99.16
66703;BME280;60933;46.398;-63.798;2023-06-10T06:54:48;100595.00;;;6.15;99.25
66703;BME280;60933;46.398;-63.798;2023-06-10T06:57:14;100593.28;;;6.17;99.18
66703;BME280;60933;46.398;-63.798;2023-06-10T06:59:40;100587.34;;;6.14;99.51
66703;BME280;60933;46.398;-63.798;2023-06-10T07:02:06;100589.03;;;6.15;99.38
66703;BME280;60933;46.398;-63.798;2023-06-10T07:04:32;100596.72;;;6.16;99.65
66703;BME280;60933;46.398;-63.798;2023-06-10T07:06:58;100585.63;;;6.16;99.80
66703;BME280;60933;46.398;-63.798;2023-06-10T07:09:24;100594.94;;;6.25;99.87
66703;BME280;60933;46.398;-63.798;2023-06-10T07:11:51;100588.06;;;6.25;99.56
66703;BME280;60933;46.398;-63.798;2023-06-10T07:14:17;100586.38;;;6.26;99.63
66703;BME280;60933;46.398;-63.798;2023-06-10T07:16:43;100589.78;;;6.28;100.00
66703;BME280;60933;46.398;-63.798;2023-06-10T07:19:10;100589.75;;;6.29;99.92
66703;BME280;60933;46.398;-63.798;2023-06-10T07:21:37;100577.81;;;6.28;99.74
66703;BME280;60933;46.398;-63.798;2023-06-10T07:24:03;100579.47;;;6.31;100.00
66703;BME280;60933;46.398;-63.798;2023-06-10T07:26:30;100578.59;;;6.33;100.00
66703;BME280;60933;46.398;-63.798;2023-06-10T07:28:56;100581.13;;;6.38;99.96
66703;BME280;60933;46.398;-63.798;2023-06-10T07:31:23;100581.09;;;6.41;100.00
66703;BME280;60933;46.398;-63.798;2023-06-10T07:33:50;100581.06;;;6.44;100.00
66703;BME280;60933;46.398;-63.798;2023-06-10T07:36:16;100580.19;;;6.45;100.00
66703;BME280;60933;46.398;-63.798;2023-06-10T07:38:42;100574.19;;;6.46;100.00
66703;BME280;60933;46.398;-63.798;2023-06-10T07:41:09;100581.84;;;6.51;100.00
66703;BME280;60933;46.398;-63.798;2023-06-10T07:43:35;100571.63;;;6.49;100.00
66703;BME280;60933;46.398;-63.798;2023-06-10T07:46:01;100571.59;;;6.51;100.00
66703;BME280;60933;46.398;-63.798;2023-06-10T07:48:27;100575.03;;;6.50;100.00
66703;BME280;60933;46.398;-63.798;2023-06-10T07:50:53;100581.03;;;6.47;100.00
66703;BME280;60933;46.398;-63.798;2023-06-10T07:53:20;100571.63;;;6.46;100.00
66703;BME280;60933;46.398;-63.798;2023-06-10T07:55:46;100575.06;;;6.47;100.00
66703;BME280;60933;46.398;-63.798;2023-06-10T07:58:12;100574.19;;;6.46;100.00
66703;BME280;60933;46.398;-63.798;2023-06-10T08:00:38;100576.78;;;6.45;100.00
66703;BME280;60933;46.398;-63.798;2023-06-10T08:03:04;100567.41;;;6.42;100.00
66703;BME280;60933;46.398;-63.798;2023-06-10T08:05:30;100560.59;;;6.41;100.00
66703;BME280;60933;46.398;-63.798;2023-06-10T08:07:57;100558.91;;;6.37;100.00
66703;BME280;60933;46.398;-63.798;2023-06-10T08:10:28;100559.81;;;6.33;100.00
66703;BME280;60933;46.398;-63.798;2023-06-10T08:12:54;100564.91;;;6.36;100.00
66703;BME280;60933;46.398;-63.798;2023-06-10T08:15:20;100564.91;;;6.38;100.00
66703;BME280;60933;46.398;-63.798;2023-06-10T08:17:47;100565.75;;;6.38;100.00
66703;BME280;60933;46.398;-63.798;2023-06-10T08:20:13;100567.47;;;6.36;100.00
66703;BME280;60933;46.398;-63.798;2023-06-10T08:22:39;100570.06;;;6.33;100.00
66703;BME280;60933;46.398;-63.798;2023-06-10T08:25:05;100557.31;;;6.27;100.00
66703;BME280;60933;46.398;-63.798;2023-06-10T08:27:31;100574.28;;;6.37;100.00
66703;BME280;60933;46.398;-63.798;2023-06-10T08:29:57;100567.47;;;6.36;100.00
66703;BME280;60933;46.398;-63.798;2023-06-10T08:32:26;100560.63;;;6.37;100.00
66703;BME280;60933;46.398;-63.798;2023-06-10T08:34:52;100562.34;;;6.36;100.00
66703;BME280;60933;46.398;-63.798;2023-06-10T08:37:18;100561.50;;;6.36;100.00
66703;BME280;60933;46.398;-63.798;2023-06-10T08:39:45;100563.19;;;6.40;100.00
66703;BME280;60933;46.398;-63.798;2023-06-10T08:44:46;100557.16;;;6.41;100.00
66703;BME280;60933;46.398;-63.798;2023-06-10T08:47:16;100558.00;;;6.43;100.00
66703;BME280;60933;46.398;-63.798;2023-06-10T08:49:46;100554.56;;;6.44;100.00
66703;BME280;60933;46.398;-63.798;2023-06-10T08:52:17;100559.69;;;6.47;100.00
66703;BME280;60933;46.398;-63.798;2023-06-10T08:54:51;100553.66;;;6.48;100.00
66703;BME280;60933;46.398;-63.798;2023-06-10T08:57:18;100563.91;;;6.51;100.00
66703;BME280;60933;46.398;-63.798;2023-06-10T08:59:48;100556.19;;;6.54;100.00
66703;BME280;60933;46.398;-63.798;2023-06-10T09:02:15;100564.69;;;6.58;100.00
66703;BME280;60933;46.398;-63.798;2023-06-10T09:04:46;100558.66;;;6.62;100.00
66703;BME280;60933;46.398;-63.798;2023-06-10T09:07:14;100550.94;;;6.63;100.00
66703;BME280;60933;46.398;-63.798;2023-06-10T09:09:42;100555.16;;;6.69;100.00
66703;BME280;60933;46.398;-63.798;2023-06-10T09:12:10;100544.88;;;6.69;100.00
66703;BME280;60933;46.398;-63.798;2023-06-10T09:14:38;100560.19;;;6.77;100.00
66703;BME280;60933;46.398;-63.798;2023-06-10T09:17:05;100549.13;;;6.73;100.00
66703;BME280;60933;46.398;-63.798;2023-06-10T09:19:32;100558.47;;;6.77;100.00
66703;BME280;60933;46.398;-63.798;2023-06-10T09:21:58;100555.84;;;6.82;100.00
66703;BME280;60933;46.398;-63.798;2023-06-10T09:24:25;100555.03;;;6.81;100.00
66703;BME280;60933;46.398;-63.798;2023-06-10T09:27:03;100553.22;;;6.87;100.00
66703;BME280;60933;46.398;-63.798;2023-06-10T09:29:29;100554.03;;;6.90;100.00
66703;BME280;60933;46.398;-63.798;2023-06-10T09:31:55;100549.72;;;6.94;100.00
66703;BME280;60933;46.398;-63.798;2023-06-10T09:34:25;100553.13;;;6.96;100.00
66703;BME280;60933;46.398;-63.798;2023-06-10T09:36:51;100544.56;;;6.97;100.00
66703;BME280;60933;46.398;-63.798;2023-06-10T09:39:18;100535.97;;;6.98;100.00
66703;BME280;60933;46.398;-63.798;2023-06-10T09:41:46;100546.13;;;7.07;100.00
66703;BME280;60933;46.398;-63.798;2023-06-10T09:46:40;100546.88;;;7.14;100.00
66703;BME280;60933;46.398;-63.798;2023-06-10T09:49:07;100543.44;;;7.17;100.00
66703;BME280;60933;46.398;-63.798;2023-06-10T09:51:33;100544.38;;;7.09;100.00
66703;BME280;60933;46.398;-63.798;2023-06-10T09:54:02;100552.03;;;7.14;100.00
66703;BME280;60933;46.398;-63.798;2023-06-10T09:56:38;100554.56;;;7.16;100.00
66703;BME280;60933;46.398;-63.798;2023-06-10T09:59:08;100558.84;;;7.15;99.97
66703;BME280;60933;46.398;-63.798;2023-06-10T10:01:34;100558.00;;;7.16;99.93
66703;BME280;60933;46.398;-63.798;2023-06-10T10:04:00;100555.41;;;7.18;99.58
66703;BME280;60933;46.398;-63.798;2023-06-10T10:06:27;100557.03;;;7.22;99.98
66703;BME280;60933;46.398;-63.798;2023-06-10T10:08:55;100556.22;;;7.20;100.00
66703;BME280;60933;46.398;-63.798;2023-06-10T10:11:22;100564.72;;;7.25;99.65
66703;BME280;60933;46.398;-63.798;2023-06-10T10:13:49;100563.00;;;7.24;99.67
66703;BME280;60933;46.398;-63.798;2023-06-10T10:16:36;100554.41;;;7.26;99.42
66703;BME280;60933;46.398;-63.798;2023-06-10T10:19:25;100556.16;;;7.26;99.17
66703;BME280;60933;46.398;-63.798;2023-06-10T10:21:56;100559.50;;;7.28;99.24
66703;BME280;60933;46.398;-63.798;2023-06-10T10:24:46;100551.91;;;7.23;99.07
66703;BME280;60933;46.398;-63.798;2023-06-10T10:27:19;100570.69;;;7.25;98.45
66703;BME280;60933;46.398;-63.798;2023-06-10T10:29:48;100568.97;;;7.26;98.25
66703;BME280;60933;46.398;-63.798;2023-06-10T10:32:18;100560.41;;;7.25;98.14
66703;BME280;60933;46.398;-63.798;2023-06-10T10:37:22;100565.53;;;7.27;98.26
66703;BME280;60933;46.398;-63.798;2023-06-10T10:39:49;100573.09;;;7.36;98.14
66703;BME280;60933;46.398;-63.798;2023-06-10T10:42:16;100561.88;;;7.43;98.25
66703;BME280;60933;46.398;-63.798;2023-06-10T10:44:43;100560.09;;;7.49;97.93
66703;BME280;60933;46.398;-63.798;2023-06-10T10:47:10;100559.13;;;7.56;98.25
66703;BME280;60933;46.398;-63.798;2023-06-10T10:49:39;100554.81;;;7.56;97.80
66703;BME280;60933;46.398;-63.798;2023-06-10T10:52:12;100555.63;;;7.60;97.61
66703;BME280;60933;46.398;-63.798;2023-06-10T10:54:43;100545.34;;;7.60;97.76
66703;BME280;60933;46.398;-63.798;2023-06-10T10:57:21;100558.09;;;7.68;97.36
66703;BME280;60933;46.398;-63.798;2023-06-10T11:00:00;100552.84;;;7.74;97.23
66703;BME280;60933;46.398;-63.798;2023-06-10T11:05:00;100536.63;;;7.70;96.77
66703;BME280;60933;46.398;-63.798;2023-06-10T11:07:30;100550.06;;;7.86;96.69
66703;BME280;60933;46.398;-63.798;2023-06-10T11:15:11;100557.59;;;7.99;96.39
66703;BME280;60933;46.398;-63.798;2023-06-10T11:18:14;100557.53;;;8.03;96.02
66703;BME280;60933;46.398;-63.798;2023-06-10T11:31:26;100558.50;;;8.43;94.46
66703;BME280;60933;46.398;-63.798;2023-06-10T11:33:58;100548.91;;;8.53;94.20
66703;BME280;60933;46.398;-63.798;2023-06-10T11:36:25;100549.66;;;8.60;94.06
66703;BME280;60933;46.398;-63.798;2023-06-10T11:38:59;100549.50;;;8.67;93.34
66703;BME280;60933;46.398;-63.798;2023-06-10T11:41:26;100558.78;;;8.76;92.96
66703;BME280;60933;46.398;-63.798;2023-06-10T11:43:54;100559.47;;;8.84;92.39
66703;BME280;60933;46.398;-63.798;2023-06-10T11:46:24;100548.16;;;8.90;92.34
66703;BME280;60933;46.398;-63.798;2023-06-10T11:49:00;100559.97;;;9.00;91.98
66703;BME280;60933;46.398;-63.798;2023-06-10T11:51:28;100553.22;;;8.96;90.53
66703;BME280;60933;46.398;-63.798;2023-06-10T11:53:55;100554.63;;;9.10;89.93
66703;BME280;60933;46.398;-63.798;2023-06-10T11:56:22;100552.59;;;9.24;89.65
66703;BME280;60933;46.398;-63.798;2023-06-10T11:58:54;100551.63;;;9.28;89.33
66703;BME280;60933;46.398;-63.798;2023-06-10T12:01:25;100554.16;;;9.31;88.37
66703;BME280;60933;46.398;-63.798;2023-06-10T12:04:02;100542.06;;;9.35;87.64
66703;BME280;60933;46.398;-63.798;2023-06-10T12:06:44;100542.53;;;9.51;86.87
66703;BME280;60933;46.398;-63.798;2023-06-10T12:09:25;100551.69;;;9.64;86.28
66703;BME280;60933;46.398;-63.798;2023-06-10T12:12:02;100558.34;;;9.73;86.31
66703;BME280;60933;46.398;-63.798;2023-06-10T12:14:56;100555.72;;;9.75;85.60
66703;BME280;60933;46.398;-63.798;2023-06-10T12:20:00;100557.47;;;9.74;84.95
66703;BME280;60933;46.398;-63.798;2023-06-10T12:22:39;100548.75;;;9.80;85.29
66703;BME280;60933;46.398;-63.798;2023-06-10T12:25:06;100541.72;;;9.85;84.92
66703;BME280;60933;46.398;-63.798;2023-06-10T12:27:34;100544.91;;;9.95;84.97
66703;BME280;60933;46.398;-63.798;2023-06-10T12:30:01;100547.53;;;9.93;83.80
66703;BME280;60933;46.398;-63.798;2023-06-10T12:32:45;100544.88;;;9.96;83.68
66703;BME280;60933;46.398;-63.798;2023-06-10T12:35:17;100543.97;;;9.97;83.58
66703;BME280;60933;46.398;-63.798;2023-06-10T12:38:00;100547.44;;;9.96;82.95
66703;BME280;60933;46.398;-63.798;2023-06-10T12:40:28;100546.56;;;9.97;83.27
66703;BME280;60933;46.398;-63.798;2023-06-10T12:42:55;100546.53;;;9.99;82.79
66703;BME280;60933;46.398;-63.798;2023-06-10T12:45:31;100544.06;;;9.94;82.44
66703;BME280;60933;46.398;-63.798;2023-06-10T12:48:24;100544.03;;;9.96;82.48
66703;BME280;60933;46.398;-63.798;2023-06-10T12:50:55;100546.56;;;9.97;82.37
66703;BME280;60933;46.398;-63.798;2023-06-10T12:53:22;100540.34;;;10.05;82.59
66703;BME280;60933;46.398;-63.798;2023-06-10T12:55:49;100545.44;;;10.08;82.12
66703;BME280;60933;46.398;-63.798;2023-06-10T12:58:16;100542.88;;;10.08;82.09
66703;BME280;60933;46.398;-63.798;2023-06-10T13:00:42;100536.53;;;10.20;82.69
66703;BME280;60933;46.398;-63.798;2023-06-10T13:03:09;100533.72;;;10.29;81.87
66703;BME280;60933;46.398;-63.798;2023-06-10T13:05:36;100545.56;;;10.38;81.27
66703;BME280;60933;46.398;-63.798;2023-06-10T13:08:05;100529.13;;;10.42;81.25
66703;BME280;60933;46.398;-63.798;2023-06-10T13:10:33;100530.63;;;10.49;80.25
66703;BME280;60933;46.398;-63.798;2023-06-10T13:13:01;100532.03;;;10.61;80.13
66703;BME280;60933;46.398;-63.798;2023-06-10T13:15:28;100531.16;;;10.60;80.00
66703;BME280;60933;46.398;-63.798;2023-06-10T13:17:54;100531.91;;;10.64;80.02
66703;BME280;60933;46.398;-63.798;2023-06-10T13:20:20;100518.84;;;10.70;79.88